Archival Weather

Chicago O'Hare International

Chicago, Illinois (KORD)

Report from: Thursday, December 7, 2023 7:51 AM CST
Current time: Wednesday, April 24, 2024 2:10 PM CDT

Current weather – Weather history – Daily summaries
Weather forecast

Temperature2.8°C (37.0°F)
Wind chill-0.9°C (30.4°F)
Dew point-1.1°C (30.0°F)
Winds 8 kts (4.1 m/s, 9.2 mph) South-Southwest (200°)
Visibility10 mi. (16.1 km)
Clouds Few clouds 14,000 ft. (4,267 m)
Scattered clouds 25,000 ft. (7,620 m)
Altimeter29.88 in.Hg (1012 mB)
Relative humidity75 %
Density altitude-1,360 ft. (-414 m)
Sea-level pressure101.2 kPa (1012 mB, 29.89 in.Hg)
Remarks Automated weather observing station with precipitation discriminator
Flight conditions Visual Meteorological Conditions
Raw dataKORD 071351Z 20008KT 10SM FEW140 SCT250 03/M01 A2988 RMK AO2 SLP122 T00281011
An error has occurred. This application may no longer respond until reloaded. Reload 🗙